createdAt,value
2023-01-03T00:01:00.351Z,2.58
2023-01-03T00:03:26.562Z,3.13
2023-01-03T00:05:52.677Z,3.30
2023-01-03T00:08:18.832Z,2.65
2023-01-03T00:10:44.952Z,4.95
2023-01-03T00:13:11.099Z,3.65
2023-01-03T00:15:37.200Z,4.05
2023-01-03T00:18:03.347Z,3.40
2023-01-03T00:20:29.482Z,2.40
2023-01-03T00:22:55.722Z,5.40
2023-01-03T00:25:21.826Z,2.53
2023-01-03T00:27:47.941Z,3.67
2023-01-03T00:30:14.103Z,6.68
2023-01-03T00:32:40.263Z,2.72
2023-01-03T00:35:06.375Z,2.10
2023-01-03T00:37:32.561Z,5.40
2023-01-03T00:39:58.685Z,5.05
2023-01-03T00:42:24.795Z,3.10
2023-01-03T00:44:50.982Z,5.13
2023-01-03T00:47:17.108Z,3.75
2023-01-03T00:49:43.252Z,3.58
2023-01-03T00:52:09.411Z,3.45
2023-01-03T00:54:35.589Z,3.50
2023-01-03T00:57:01.699Z,4.13
2023-01-03T00:59:27.883Z,3.40
2023-01-03T01:01:54.133Z,3.45
2023-01-03T01:04:20.391Z,4.53
2023-01-03T01:06:46.518Z,3.20
2023-01-03T01:09:12.681Z,2.58
2023-01-03T01:11:38.783Z,3.20
2023-01-03T01:14:04.901Z,3.38
2023-01-03T01:16:31.173Z,4.90
2023-01-03T01:18:57.452Z,2.75
2023-01-03T01:21:23.606Z,3.22
2023-01-03T01:23:49.726Z,4.78
2023-01-03T01:26:15.917Z,2.50
2023-01-03T01:28:42.024Z,5.43
2023-01-03T01:31:08.192Z,3.50
2023-01-03T01:33:34.348Z,5.63
2023-01-03T01:36:00.494Z,2.58
2023-01-03T01:38:26.632Z,4.10
2023-01-03T01:40:52.775Z,2.25
2023-01-03T01:43:18.887Z,3.63
2023-01-03T01:45:44.997Z,2.30
2023-01-03T01:48:11.135Z,2.17
2023-01-03T01:50:37.233Z,1.50
2023-01-03T01:53:03.361Z,1.48
2023-01-03T01:55:29.465Z,2.28
2023-01-03T01:57:55.611Z,2.47
2023-01-03T02:00:21.731Z,1.85
2023-01-03T02:02:48.033Z,1.67
2023-01-03T02:05:14.236Z,2.03
2023-01-03T02:07:40.382Z,1.85
2023-01-03T02:10:06.505Z,6.40
2023-01-03T02:12:32.644Z,2.47
2023-01-03T02:14:58.774Z,1.77
2023-01-03T02:17:24.907Z,2.08
2023-01-03T02:19:51.025Z,1.35
2023-01-03T02:22:17.171Z,1.52
2023-01-03T02:24:43.302Z,0.88
2023-01-03T02:27:09.405Z,1.08
2023-01-03T02:29:35.574Z,1.13
2023-01-03T02:32:01.714Z,0.50
2023-01-03T02:34:27.850Z,3.03
2023-01-03T02:36:53.970Z,0.98
2023-01-03T02:39:23.612Z,0.90
2023-01-03T02:41:50.014Z,1.52
2023-01-03T02:44:16.165Z,1.83
2023-01-03T02:46:42.361Z,1.10
2023-01-03T02:49:08.612Z,1.50
2023-01-03T02:51:34.790Z,0.47
2023-01-03T02:54:01.172Z,1.13
2023-01-03T02:56:27.587Z,0.65
2023-01-03T02:58:53.721Z,2.35
2023-01-03T03:01:19.958Z,0.98
2023-01-03T03:03:46.681Z,0.60
2023-01-03T03:06:13.153Z,0.95
2023-01-03T03:08:39.449Z,0.75
2023-01-03T03:11:05.771Z,0.65
2023-01-03T03:13:31.962Z,1.38
2023-01-03T03:15:58.321Z,0.93
2023-01-03T03:18:24.809Z,0.55
2023-01-03T03:20:51.135Z,0.57
2023-01-03T03:23:17.286Z,1.38
2023-01-03T03:25:43.502Z,0.70
2023-01-03T03:28:09.799Z,1.48
2023-01-03T03:30:35.972Z,1.52
2023-01-03T03:33:02.195Z,1.75
2023-01-03T03:35:28.411Z,1.58
2023-01-03T03:37:54.675Z,1.35
2023-01-03T03:40:20.882Z,2.47
2023-01-03T03:42:47.159Z,1.38
2023-01-03T03:45:13.397Z,1.42
2023-01-03T03:47:39.690Z,1.33
2023-01-03T03:50:05.897Z,2.25
2023-01-03T03:52:32.127Z,1.85
2023-01-03T03:54:58.359Z,0.20
2023-01-03T03:57:24.947Z,1.23
2023-01-03T03:59:51.111Z,0.93
2023-01-03T04:02:17.386Z,1.05
2023-01-03T04:04:43.618Z,1.20
2023-01-03T04:07:09.808Z,1.05
2023-01-03T04:09:36.007Z,1.40
2023-01-03T04:12:02.501Z,0.90
2023-01-03T04:14:28.869Z,1.35
2023-01-03T04:16:55.171Z,0.73
2023-01-03T04:19:21.507Z,1.17
2023-01-03T04:21:48.200Z,0.93
2023-01-03T04:24:14.412Z,1.35
2023-01-03T04:26:40.608Z,1.77
2023-01-03T04:29:06.800Z,1.58
2023-01-03T04:31:33.039Z,3.05
2023-01-03T04:33:59.248Z,1.08
2023-01-03T04:36:25.396Z,1.45
2023-01-03T04:38:51.608Z,0.93
2023-01-03T04:41:17.966Z,1.52
2023-01-03T04:43:44.190Z,1.13
2023-01-03T04:46:10.456Z,3.55
2023-01-03T04:48:36.817Z,0.93
2023-01-03T04:51:02.984Z,1.00
2023-01-03T04:53:29.261Z,2.08
2023-01-03T04:55:55.686Z,2.55
2023-01-03T04:58:22.000Z,1.77
2023-01-03T05:00:48.199Z,2.63
2023-01-03T05:03:14.395Z,1.05
2023-01-03T05:05:40.972Z,3.25
2023-01-03T05:08:07.264Z,2.25
2023-01-03T05:10:33.674Z,1.27
2023-01-03T05:13:00.143Z,1.40
2023-01-03T05:15:26.364Z,1.83
2023-01-03T05:17:52.702Z,1.27
2023-01-03T05:20:19.101Z,1.00
2023-01-03T05:22:45.295Z,2.22
2023-01-03T05:25:11.642Z,1.10
2023-01-03T05:27:37.880Z,1.60
2023-01-03T05:30:04.152Z,2.28
2023-01-03T05:32:30.311Z,1.73
2023-01-03T05:34:56.571Z,1.55
2023-01-03T05:37:22.800Z,2.42
2023-01-03T05:39:49.128Z,1.63
2023-01-03T05:42:15.418Z,3.20
2023-01-03T05:44:41.635Z,2.47
2023-01-03T05:47:07.836Z,2.22
2023-01-03T05:49:34.131Z,1.98
2023-01-03T05:52:00.274Z,2.13
2023-01-03T05:54:26.568Z,4.20
2023-01-03T05:56:53.075Z,5.43
2023-01-03T05:59:19.234Z,4.43
2023-01-03T06:01:45.559Z,3.17
2023-01-03T06:04:12.165Z,3.30
2023-01-03T06:06:38.630Z,1.60
2023-01-03T06:09:05.273Z,2.65
2023-01-03T06:11:31.630Z,2.47
2023-01-03T06:13:57.990Z,3.05
2023-01-03T06:16:24.973Z,1.20
2023-01-03T06:18:51.779Z,1.80
2023-01-03T06:21:17.980Z,3.20
2023-01-03T06:23:44.327Z,1.80
2023-01-03T06:26:10.647Z,1.88
2023-01-03T06:28:36.949Z,1.52
2023-01-03T06:31:03.400Z,3.50
2023-01-03T06:33:29.893Z,2.58
2023-01-03T06:35:56.148Z,2.08
2023-01-03T06:38:22.630Z,3.05
2023-01-03T06:40:49.786Z,2.92
2023-01-03T06:43:16.143Z,2.00
2023-01-03T06:45:42.614Z,2.92
2023-01-03T06:48:09.027Z,4.60
2023-01-03T06:50:35.422Z,5.00
2023-01-03T06:53:01.698Z,1.58
2023-01-03T06:55:28.540Z,2.30
2023-01-03T06:57:55.579Z,1.50
2023-01-03T07:00:22.194Z,3.22
2023-01-03T07:02:48.912Z,3.47
2023-01-03T07:05:16.293Z,1.85
2023-01-03T07:07:43.029Z,2.78
2023-01-03T07:10:10.424Z,2.55
2023-01-03T07:12:37.168Z,1.85
2023-01-03T07:15:03.559Z,3.17
2023-01-03T07:17:29.877Z,1.88
2023-01-03T07:19:56.078Z,6.20
2023-01-03T07:22:22.683Z,4.05
2023-01-03T07:24:48.991Z,3.65
2023-01-03T07:27:15.258Z,3.55
2023-01-03T07:29:41.694Z,3.80
2023-01-03T07:32:08.451Z,2.50
2023-01-03T07:34:34.698Z,3.22
2023-01-03T07:37:01.140Z,4.05
2023-01-03T07:39:27.661Z,2.78
2023-01-03T07:41:54.022Z,2.70
2023-01-03T07:44:20.311Z,3.53
2023-01-03T07:46:46.712Z,3.65
2023-01-03T07:49:13.140Z,2.88
2023-01-03T07:51:39.451Z,3.15
2023-01-03T07:54:05.984Z,3.55
2023-01-03T07:56:32.117Z,4.13
2023-01-03T07:58:58.368Z,3.33
2023-01-03T08:01:24.804Z,4.53
2023-01-03T08:03:51.193Z,4.28
2023-01-03T08:06:17.496Z,2.60
2023-01-03T08:08:43.795Z,3.05
2023-01-03T08:11:10.317Z,3.00
2023-01-03T08:13:36.512Z,3.35
2023-01-03T08:16:02.866Z,3.13
2023-01-03T08:18:29.528Z,5.45
2023-01-03T08:20:55.830Z,3.90
2023-01-03T08:23:22.142Z,4.85
2023-01-03T08:25:49.938Z,3.03
2023-01-03T08:28:16.157Z,3.65
2023-01-03T08:30:42.516Z,4.65
2023-01-03T08:33:08.968Z,2.53
2023-01-03T08:35:35.327Z,2.78
2023-01-03T08:38:02.262Z,4.90
2023-01-03T08:40:29.905Z,2.53
2023-01-03T08:42:56.703Z,2.63
2023-01-03T08:45:23.322Z,3.45
2023-01-03T08:47:49.498Z,3.85
2023-01-03T08:50:15.648Z,2.15
2023-01-03T08:52:41.804Z,2.40
2023-01-03T08:55:07.956Z,2.58
2023-01-03T08:57:34.076Z,2.55
2023-01-03T09:00:00.237Z,2.38
2023-01-03T09:02:26.575Z,2.75
2023-01-03T09:04:52.999Z,3.05
2023-01-03T09:07:19.117Z,3.20
2023-01-03T09:09:45.231Z,2.25
2023-01-03T09:12:11.386Z,3.40
2023-01-03T09:14:37.500Z,3.05
2023-01-03T09:17:03.696Z,3.72
2023-01-03T09:19:29.823Z,3.90
2023-01-03T09:21:55.953Z,2.92
2023-01-03T09:24:22.117Z,3.08
2023-01-03T09:26:54.202Z,4.35
2023-01-03T09:29:20.983Z,5.28
2023-01-03T09:31:47.200Z,8.98
2023-01-03T09:34:13.305Z,4.35
2023-01-03T09:36:39.446Z,3.80
2023-01-03T09:39:05.625Z,5.30
2023-01-03T09:41:31.762Z,2.75
2023-01-03T09:43:57.983Z,2.45
2023-01-03T09:46:24.204Z,4.75
2023-01-03T09:48:50.423Z,5.45
2023-01-03T09:51:23.974Z,2.97
2023-01-03T09:53:53.757Z,3.17
2023-01-03T09:56:19.889Z,3.17
2023-01-03T09:58:46.047Z,3.65
2023-01-03T10:01:12.269Z,3.47
2023-01-03T10:03:38.522Z,3.60
2023-01-03T10:06:04.683Z,3.38
2023-01-03T10:08:30.846Z,4.03
2023-01-03T10:10:56.981Z,2.90
2023-01-03T10:13:23.128Z,3.45
2023-01-03T10:15:49.248Z,5.97
2023-01-03T10:18:15.452Z,3.72
2023-01-03T10:20:41.744Z,3.95
2023-01-03T10:23:07.867Z,5.03
2023-01-03T10:25:34.014Z,3.25
2023-01-03T10:28:00.177Z,2.83
2023-01-03T10:30:26.304Z,4.93
2023-01-03T10:32:52.445Z,3.75
2023-01-03T10:35:18.569Z,5.20
2023-01-03T10:37:44.744Z,6.72
2023-01-03T10:40:10.895Z,3.38
2023-01-03T10:42:37.031Z,3.40
2023-01-03T10:45:03.139Z,5.10
2023-01-03T10:47:29.292Z,3.53
2023-01-03T10:49:55.426Z,3.85
2023-01-03T10:52:21.542Z,3.30
2023-01-03T10:54:47.696Z,4.47
2023-01-03T10:57:13.855Z,5.45
2023-01-03T10:59:40.012Z,5.57
2023-01-03T11:02:06.352Z,4.35
2023-01-03T11:04:32.645Z,3.47
2023-01-03T11:06:58.759Z,2.67
2023-01-03T11:09:24.939Z,3.33
2023-01-03T11:11:51.049Z,4.35
2023-01-03T11:14:17.197Z,4.47
2023-01-03T11:16:43.354Z,4.20
2023-01-03T11:19:09.584Z,5.97
2023-01-03T11:21:35.708Z,3.55
2023-01-03T11:24:01.840Z,3.65
2023-01-03T11:26:27.992Z,3.35
2023-01-03T11:28:54.109Z,2.55
2023-01-03T11:31:20.248Z,2.45
2023-01-03T11:33:46.414Z,2.63
2023-01-03T11:36:12.559Z,2.38
2023-01-03T11:38:38.671Z,2.22
2023-01-03T11:41:04.802Z,4.10
2023-01-03T11:43:30.914Z,3.97
2023-01-03T11:45:57.159Z,3.83
2023-01-03T11:48:23.315Z,2.55
2023-01-03T11:50:49.465Z,3.10
2023-01-03T11:53:15.694Z,1.60
2023-01-03T11:55:41.847Z,3.55
2023-01-03T11:58:08.037Z,2.65
2023-01-03T12:00:34.208Z,2.05
2023-01-03T12:03:00.686Z,2.22
2023-01-03T12:05:26.928Z,3.78
2023-01-03T12:07:53.170Z,5.38
2023-01-03T12:10:19.289Z,2.97
2023-01-03T12:12:45.433Z,2.60
2023-01-03T12:15:11.553Z,1.85
2023-01-03T12:17:37.689Z,2.40
2023-01-03T12:20:03.799Z,1.52
2023-01-03T12:22:29.956Z,2.28
2023-01-03T12:25:02.560Z,3.03
2023-01-03T12:27:31.076Z,3.03
2023-01-03T12:29:57.218Z,2.75
2023-01-03T12:32:23.347Z,2.72
2023-01-03T12:34:49.472Z,1.50
2023-01-03T12:37:15.626Z,3.55
2023-01-03T12:39:41.987Z,2.63
2023-01-03T12:42:08.233Z,2.80
2023-01-03T12:44:34.341Z,1.95
2023-01-03T12:47:01.467Z,1.90
2023-01-03T12:49:27.710Z,1.63
2023-01-03T12:51:53.845Z,2.28
2023-01-03T12:54:19.993Z,2.67
2023-01-03T12:56:46.160Z,1.58
2023-01-03T12:59:12.293Z,2.30
2023-01-03T13:01:38.464Z,2.17
2023-01-03T13:04:04.762Z,2.83
2023-01-03T13:06:30.924Z,3.10
2023-01-03T13:08:57.055Z,2.03
2023-01-03T13:11:23.274Z,2.83
2023-01-03T13:13:49.413Z,2.45
2023-01-03T13:16:15.619Z,2.47
2023-01-03T13:18:41.779Z,1.70
2023-01-03T13:21:07.912Z,2.38
2023-01-03T13:23:34.048Z,2.97
2023-01-03T13:26:00.199Z,1.25
2023-01-03T13:28:26.332Z,6.30
2023-01-03T13:30:52.490Z,2.55
2023-01-03T13:33:18.689Z,1.48
2023-01-03T13:35:44.887Z,4.57
2023-01-03T13:38:11.096Z,2.83
2023-01-03T13:41:16.044Z,1.63
2023-01-03T13:43:23.343Z,1.95
2023-01-03T13:45:49.491Z,3.00
2023-01-03T13:48:15.658Z,1.50
2023-01-03T13:50:41.793Z,2.70
2023-01-03T13:53:07.913Z,1.23
2023-01-03T13:55:34.073Z,1.33
2023-01-03T13:58:00.265Z,3.58
2023-01-03T14:00:26.392Z,2.22
2023-01-03T14:02:52.820Z,2.08
2023-01-03T14:05:19.078Z,1.17
2023-01-03T14:07:45.191Z,1.48
2023-01-03T14:10:11.358Z,1.98
2023-01-03T14:12:37.576Z,3.55
2023-01-03T14:15:03.742Z,3.15
2023-01-03T14:17:29.858Z,2.72
2023-01-03T14:19:55.981Z,1.70
2023-01-03T14:22:31.258Z,1.88
2023-01-03T14:24:58.194Z,2.17
2023-01-03T14:27:24.326Z,2.42
2023-01-03T14:29:50.428Z,0.95
2023-01-03T14:32:16.592Z,1.63
2023-01-03T14:34:42.720Z,3.95
2023-01-03T14:37:08.870Z,2.03
2023-01-03T14:42:00.077Z,2.28
2023-01-03T14:44:26.214Z,2.92
2023-01-03T14:49:26.439Z,3.10
2023-01-03T14:51:52.607Z,2.10
2023-01-03T14:54:18.774Z,2.88
2023-01-03T14:56:44.907Z,1.30
2023-01-03T14:59:11.045Z,2.72
2023-01-03T15:01:37.396Z,2.53
2023-01-03T15:04:03.648Z,1.80
2023-01-03T15:06:29.782Z,1.70
2023-01-03T15:08:55.896Z,1.77
2023-01-03T15:11:22.007Z,1.77
2023-01-03T15:13:48.154Z,4.45
2023-01-03T15:16:14.363Z,3.25
2023-01-03T15:18:40.549Z,1.50
2023-01-03T15:21:06.684Z,4.05
2023-01-03T15:23:32.833Z,2.60
2023-01-03T15:25:58.957Z,3.45
2023-01-03T15:28:25.104Z,2.35
2023-01-03T15:30:51.235Z,1.95
2023-01-03T15:33:17.382Z,8.23
2023-01-03T15:35:43.498Z,4.47
2023-01-03T15:38:09.642Z,2.40
2023-01-03T15:40:35.758Z,3.55
2023-01-03T15:43:01.907Z,2.08
2023-01-03T15:45:28.105Z,2.08
2023-01-03T15:47:54.330Z,1.65
2023-01-03T15:50:20.496Z,2.20
2023-01-03T15:52:46.680Z,1.70
2023-01-03T15:55:12.838Z,2.58
2023-01-03T15:57:38.962Z,2.90
2023-01-03T16:00:05.116Z,3.17
2023-01-03T16:02:31.518Z,3.03
2023-01-03T16:04:57.799Z,4.50
2023-01-03T16:07:23.927Z,3.50
2023-01-03T16:09:50.120Z,2.67
2023-01-03T16:12:16.231Z,3.03
2023-01-03T16:14:42.373Z,2.90
2023-01-03T16:17:08.560Z,3.08
2023-01-03T16:19:34.805Z,3.88
2023-01-03T16:24:47.111Z,3.72
2023-01-03T16:27:13.257Z,2.55
2023-01-03T16:29:39.418Z,3.33
2023-01-03T16:32:05.624Z,3.40
2023-01-03T16:34:33.831Z,2.83
2023-01-03T16:37:00.188Z,3.17
2023-01-03T16:39:26.330Z,3.33
2023-01-03T16:41:52.465Z,3.08
2023-01-03T16:44:18.608Z,5.07
2023-01-03T16:46:44.778Z,3.38
2023-01-03T16:49:10.952Z,5.95
2023-01-03T16:51:40.530Z,6.53
2023-01-03T16:54:09.265Z,3.90
2023-01-03T16:56:35.407Z,3.97
2023-01-03T16:59:01.522Z,6.13
2023-01-03T17:01:27.728Z,4.82
2023-01-03T17:03:53.970Z,5.18
2023-01-03T17:06:20.170Z,6.72
2023-01-03T17:08:46.288Z,4.63
2023-01-03T17:11:12.415Z,4.90
2023-01-03T17:13:38.523Z,6.03
2023-01-03T17:16:04.753Z,6.28
2023-01-03T17:18:30.905Z,5.65
2023-01-03T17:20:57.040Z,5.35
2023-01-03T17:23:23.221Z,6.85
2023-01-03T17:25:49.337Z,7.28
2023-01-03T17:28:15.479Z,8.75
2023-01-03T17:30:41.663Z,7.25
2023-01-03T17:33:07.817Z,7.30
2023-01-03T17:35:33.961Z,8.00
2023-01-03T17:38:25.233Z,5.63
2023-01-03T17:40:46.227Z,7.40
2023-01-03T17:43:12.388Z,6.72
2023-01-03T17:45:38.555Z,7.03
2023-01-03T17:48:04.718Z,8.43
2023-01-03T17:50:30.833Z,6.80
2023-01-03T17:52:56.955Z,7.57
2023-01-03T17:55:23.081Z,7.30
2023-01-03T17:57:49.250Z,7.80
2023-01-03T18:00:15.421Z,8.13
2023-01-03T18:02:41.742Z,8.48
2023-01-03T18:05:21.387Z,7.93
2023-01-03T18:07:50.906Z,12.23
2023-01-03T18:10:17.037Z,10.32
2023-01-03T18:12:43.179Z,11.88
2023-01-03T18:15:09.282Z,9.90
2023-01-03T18:17:35.407Z,12.13
2023-01-03T18:20:01.540Z,10.43
2023-01-03T18:22:27.688Z,10.05
2023-01-03T18:24:53.835Z,8.75
2023-01-03T18:27:19.953Z,9.80
2023-01-03T18:29:46.087Z,11.52
2023-01-03T18:32:12.193Z,9.95
2023-01-03T18:34:38.355Z,10.57
2023-01-03T18:37:04.467Z,10.13
2023-01-03T18:39:30.596Z,9.85
2023-01-03T18:41:56.742Z,10.02
2023-01-03T18:44:22.869Z,11.05
2023-01-03T18:46:49.042Z,10.27
2023-01-03T18:49:15.277Z,10.75
2023-01-03T18:51:41.390Z,11.63
2023-01-03T18:54:07.550Z,11.02
2023-01-03T18:56:33.692Z,12.15
2023-01-03T18:59:02.220Z,14.52
2023-01-03T19:01:28.752Z,9.85
2023-01-03T19:03:55.019Z,10.45
2023-01-03T19:06:21.177Z,9.38
2023-01-03T19:08:47.313Z,8.48
2023-01-03T19:11:13.466Z,7.90
2023-01-03T19:13:39.596Z,7.85
2023-01-03T19:16:05.810Z,8.43
2023-01-03T19:18:31.943Z,9.68
2023-01-03T19:20:58.073Z,9.23
2023-01-03T19:23:24.214Z,8.73
2023-01-03T19:25:50.370Z,6.40
2023-01-03T19:28:16.495Z,6.88
2023-01-03T19:30:42.645Z,7.13
2023-01-03T19:33:08.759Z,5.90
2023-01-03T19:35:34.891Z,7.28
2023-01-03T19:38:01.060Z,8.15
2023-01-03T19:40:27.231Z,6.95
2023-01-03T19:42:53.401Z,8.40
2023-01-03T19:45:19.522Z,6.10
2023-01-03T19:47:45.649Z,8.20
2023-01-03T19:50:11.888Z,7.03
2023-01-03T19:52:38.008Z,7.72
2023-01-03T19:55:04.152Z,5.75
2023-01-03T19:57:30.297Z,7.25
2023-01-03T19:59:56.455Z,7.68
2023-01-03T20:02:25.283Z,9.48
2023-01-03T20:04:52.167Z,9.32
2023-01-03T20:07:18.339Z,9.13
2023-01-03T20:09:44.445Z,7.97
2023-01-03T20:12:10.582Z,8.05
2023-01-03T20:14:36.699Z,10.45
2023-01-03T20:17:02.821Z,9.52
2023-01-03T20:19:28.925Z,10.30
2023-01-03T20:21:55.040Z,9.73
2023-01-03T20:24:21.177Z,11.27
2023-01-03T20:26:47.325Z,10.70
2023-01-03T20:29:13.442Z,12.52
2023-01-03T20:31:39.583Z,11.68
2023-01-03T20:34:05.721Z,11.80
2023-01-03T20:36:31.838Z,10.65
2023-01-03T20:38:57.947Z,10.18
2023-01-03T20:41:24.082Z,12.13
2023-01-03T20:43:50.484Z,13.15
2023-01-03T20:46:16.754Z,14.48
2023-01-03T20:48:42.913Z,12.50
2023-01-03T20:51:09.046Z,11.65
2023-01-03T20:53:39.723Z,14.77
2023-01-03T20:56:08.775Z,11.20
2023-01-03T20:58:34.879Z,12.10
2023-01-03T21:01:04.983Z,13.07
2023-01-03T21:03:31.594Z,12.10
2023-01-03T21:05:57.832Z,10.77
2023-01-03T21:08:23.952Z,11.38
2023-01-03T21:10:50.092Z,11.13
2023-01-03T21:13:16.245Z,11.90
2023-01-03T21:15:42.362Z,11.05
2023-01-03T21:18:08.527Z,14.27
2023-01-03T21:20:34.639Z,10.85
2023-01-03T21:23:00.777Z,14.82
2023-01-03T21:25:26.915Z,9.68
2023-01-03T21:27:53.073Z,9.95
2023-01-03T21:30:19.215Z,11.88
2023-01-03T21:32:45.358Z,10.20
2023-01-03T21:35:11.468Z,10.63
2023-01-03T21:37:37.614Z,11.35
2023-01-03T21:40:03.721Z,10.32
2023-01-03T21:42:29.847Z,9.10
2023-01-03T21:44:55.968Z,10.40
2023-01-03T21:47:22.115Z,8.90
2023-01-03T21:49:48.296Z,10.55
2023-01-03T21:52:14.445Z,11.35
2023-01-03T21:54:40.570Z,10.55
2023-01-03T21:57:06.679Z,12.13
2023-01-03T21:59:32.805Z,10.18
2023-01-03T22:01:59.090Z,9.40
2023-01-03T22:04:25.388Z,9.93
2023-01-03T22:06:51.491Z,10.45
2023-01-03T22:09:17.627Z,10.70
2023-01-03T22:11:43.751Z,13.68
2023-01-03T22:14:09.897Z,13.18
2023-01-03T22:16:36.029Z,13.02
2023-01-03T22:19:02.184Z,12.55
2023-01-03T22:21:28.329Z,14.68
2023-01-03T22:23:54.459Z,12.25
2023-01-03T22:26:20.564Z,17.48
2023-01-03T22:28:46.671Z,11.75
2023-01-03T22:31:12.793Z,10.27
2023-01-03T22:33:38.909Z,12.10
2023-01-03T22:36:05.035Z,12.93
2023-01-03T22:38:31.142Z,10.52
2023-01-03T22:40:57.264Z,11.10
2023-01-03T22:43:23.403Z,10.70
2023-01-03T22:45:49.607Z,10.93
2023-01-03T22:48:15.785Z,9.57
2023-01-03T22:50:41.913Z,10.77
2023-01-03T22:53:08.051Z,13.95
2023-01-03T22:55:34.170Z,10.18
2023-01-03T22:58:00.289Z,10.35
2023-01-03T23:00:26.434Z,11.20
2023-01-03T23:02:52.612Z,11.27
2023-01-03T23:05:18.791Z,10.93
2023-01-03T23:07:44.915Z,9.82
2023-01-03T23:10:11.059Z,10.55
2023-01-03T23:12:37.241Z,11.05
2023-01-03T23:15:03.366Z,9.32
2023-01-03T23:17:29.528Z,8.32
2023-01-03T23:19:55.647Z,9.35
2023-01-03T23:22:21.782Z,10.27
2023-01-03T23:24:47.894Z,8.63
2023-01-03T23:27:14.016Z,7.72
2023-01-03T23:29:40.146Z,7.40
2023-01-03T23:32:06.310Z,8.32
2023-01-03T23:34:32.432Z,7.20
2023-01-03T23:36:58.576Z,8.38
2023-01-03T23:39:24.727Z,8.23
2023-01-03T23:41:50.865Z,7.75
2023-01-03T23:44:17.003Z,8.70
2023-01-03T23:46:43.153Z,8.40
2023-01-03T23:49:09.289Z,9.00
2023-01-03T23:51:35.478Z,9.23
2023-01-03T23:54:01.669Z,11.18
2023-01-03T23:56:27.790Z,10.82
2023-01-03T23:58:53.926Z,8.15
